»·PEaware :: N9229P KAPA-KLHX

N9229P :: KAPA-KLHX

FLIGHT INFORMATION

Flight Status: Arrived
Operator: Privately registered:
United States
More flights under this callsign
Pilot: James W. (24810)
Aircraft: PIPER PA-24 COMMANCHE
(PA24)
More flights by this aircraft type
Origin: KAPA Centennial
United States
Destination: KLHX La Junta Mun
United States
More flights between these airports :: More routes between these airports
Route: +PIKES2 ADANE TEKAE
File this flight plan on PilotEdge
Remarks:
Altitude:
(Current/Filed)
9,000ft
Speed:
(Current/Filed)
165kts
Departed: 31-May-20 06:08 PM
Arrived: 31-May-20 07:08 PM
Distance/Time
Traveled:
111nm/0:59
Distance/Time
To Go:
Arrived

Flight Plot

Page will automatically refresh every two minutes.

Flight plan parsing failed; only flown route is shown


Map Options




Map Legend


Flown Route
Filed Route
Departure Airport
Arrival Airport
Navaid (VOR, NDB)
Fix

Horizontal Profiles

Position Reports

Time Latitude Longitude Heading Altitude Ground
Speed
31-May-20 17:49 39.580351 -104.849070 269 5886ft 0kts
31-May-20 17:50 39.580351 -104.849070 269 5886ft 0kts
31-May-20 17:51 39.580351 -104.849070 269 5886ft 0kts
31-May-20 17:52 39.580351 -104.849070 269 5886ft 0kts
31-May-20 17:53 39.580351 -104.849070 269 5886ft 0kts
31-May-20 17:54 39.580351 -104.849070 269 5886ft 0kts
31-May-20 17:55 39.580351 -104.849070 269 5886ft 0kts
31-May-20 17:56 39.580351 -104.849070 269 5886ft 0kts
31-May-20 17:57 39.580351 -104.849070 269 5886ft 0kts
31-May-20 17:58 39.580351 -104.849070 269 5886ft 0kts
31-May-20 17:59 39.580351 -104.849070 269 5886ft 0kts
31-May-20 18:00 39.580351 -104.849070 269 5886ft 0kts
31-May-20 18:01 39.580351 -104.849070 269 5886ft 0kts
31-May-20 18:02 39.580351 -104.849070 269 5886ft 0kts
31-May-20 18:03 39.580649 -104.849370 336 5886ft 4kts
31-May-20 18:04 39.582355 -104.849979 357 5886ft 13kts
31-May-20 18:05 39.584113 -104.850268 272 5886ft 0kts
31-May-20 18:06 39.584089 -104.851141 262 5886ft 9kts
31-May-20 18:07 39.566042 -104.851065 180 6320ft 118kts
31-May-20 18:08 39.529520 -104.851931 180 7420ft 139kts
31-May-20 18:09 39.489123 -104.852846 180 8041ft 151kts
31-May-20 18:10 39.453815 -104.826965 147 8741ft 144kts
31-May-20 18:11 39.417084 -104.797384 147 8817ft 164kts
31-May-20 18:12 39.377269 -104.765459 147 8817ft 173kts
31-May-20 18:13 39.335706 -104.732190 147 8817ft 176kts
31-May-20 18:14 39.293646 -104.698534 147 8817ft 181kts
31-May-20 18:16 39.250532 -104.664120 147 8817ft 182kts
31-May-20 18:17 39.207429 -104.629758 147 8816ft 182kts
31-May-20 18:18 39.164185 -104.595357 148 8817ft 182kts
31-May-20 18:19 39.120873 -104.560921 147 8744ft 184kts
31-May-20 18:20 39.077617 -104.526395 147 8743ft 182kts
31-May-20 18:21 39.034385 -104.492083 147 8743ft 182kts
31-May-20 18:22 38.991104 -104.457831 147 8743ft 182kts
31-May-20 18:23 38.947889 -104.423682 147 8743ft 182kts
31-May-20 18:24 38.907015 -104.385932 130 8743ft 182kts
31-May-20 18:25 38.872967 -104.337351 132 8743ft 182kts
31-May-20 18:26 38.838854 -104.289168 132 8743ft 182kts
31-May-20 18:27 38.804775 -104.241072 132 8743ft 182kts
31-May-20 18:28 38.770925 -104.193358 132 8743ft 181kts
31-May-20 18:29 38.736774 -104.145269 132 8743ft 182kts
31-May-20 18:30 38.702570 -104.097192 132 8743ft 182kts
31-May-20 18:31 38.668323 -104.049122 132 8743ft 182kts
31-May-20 18:32 38.634067 -104.001125 132 8743ft 182kts
31-May-20 18:33 38.599807 -103.953195 132 8743ft 182kts
31-May-20 18:33 38.571273 -103.913307 132 8743ft 182kts
31-May-20 18:35 38.531405 -103.857085 132 8743ft 182kts
31-May-20 18:35 38.502887 -103.817315 132 8743ft 182kts
31-May-20 18:36 38.468346 -103.769610 132 8743ft 182kts
31-May-20 18:38 38.428249 -103.714000 132 8743ft 183kts
31-May-20 18:38 38.399475 -103.674151 132 8743ft 182kts
31-May-20 18:39 38.365185 -103.626720 132 8743ft 182kts
31-May-20 18:40 38.330856 -103.579306 132 8743ft 182kts
31-May-20 18:41 38.296437 -103.531839 132 8743ft 182kts
31-May-20 18:42 38.262011 -103.484435 132 8743ft 182kts
31-May-20 18:43 38.227649 -103.437191 132 8743ft 182kts
31-May-20 18:44 38.193578 -103.390442 132 8743ft 177kts
31-May-20 18:45 38.160678 -103.345370 132 8743ft 170kts
31-May-20 18:46 38.128698 -103.301587 132 8743ft 168kts
31-May-20 18:47 38.097814 -103.259414 133 8742ft 156kts
31-May-20 18:48 38.070161 -103.221677 132 8742ft 137kts
31-May-20 18:49 38.048664 -103.184602 90 8745ft 130kts
31-May-20 18:50 38.048795 -103.137736 90 8160ft 134kts
31-May-20 18:51 38.048775 -103.092032 89 7552ft 127kts
31-May-20 18:52 38.048750 -103.047079 89 6951ft 127kts
31-May-20 18:53 38.071223 -103.037011 300 6744ft 112kts
31-May-20 18:54 38.058977 -103.068441 224 6743ft 108kts
31-May-20 18:55 38.048523 -103.101072 269 6752ft 100kts
31-May-20 18:56 38.048432 -103.136288 269 6743ft 99kts
31-May-20 18:57 38.048438 -103.171349 269 6743ft 99kts
31-May-20 18:58 38.048504 -103.207003 270 6608ft 109kts
31-May-20 18:59 38.048589 -103.247264 269 6118ft 115kts
31-May-20 19:00 38.048593 -103.287217 269 5619ft 103kts
31-May-20 19:01 38.048500 -103.321477 270 5444ft 97kts
31-May-20 19:02 38.048484 -103.356371 269 5443ft 99kts
31-May-20 19:03 38.048431 -103.391429 269 5443ft 99kts
31-May-20 19:04 38.048401 -103.426363 270 5329ft 97kts
31-May-20 19:05 38.048302 -103.460344 269 4793ft 95kts
31-May-20 19:06 38.048222 -103.493951 269 4296ft 94kts
31-May-20 19:07 38.047601 -103.512234 181 4239ft 14kts
31-May-20 19:08 38.045611 -103.512426 316 4239ft 3kts

Navigation Log

Ident Type
Flight plan parsing failed, navigation log unavailable